createdAt,value
2023-02-04T00:00:01.657Z,2.8
2023-02-04T00:01:01.766Z,2.8
2023-02-04T00:02:01.542Z,2.8
2023-02-04T00:03:01.577Z,2.8
2023-02-04T00:04:01.606Z,2.7
2023-02-04T00:05:01.214Z,2.8
2023-02-04T00:06:01.631Z,2.8
2023-02-04T00:07:01.735Z,2.5
2023-02-04T00:08:01.245Z,2.5
2023-02-04T00:09:01.238Z,2.3
2023-02-04T00:10:02.644Z,2.1
2023-02-04T00:11:01.560Z,2.3
2023-02-04T00:12:01.433Z,2.5
2023-02-04T00:13:02.188Z,2.7
2023-02-04T00:14:01.221Z,2.7
2023-02-04T00:15:02.355Z,2.5
2023-02-04T00:16:01.686Z,2.5
2023-02-04T00:17:01.206Z,2.3
2023-02-04T00:18:01.571Z,2.1
2023-02-04T00:19:01.214Z,2.1
2023-02-04T00:20:01.609Z,2.1
2023-02-04T00:21:01.580Z,2.1
2023-02-04T00:22:01.224Z,2.1
2023-02-04T00:23:01.455Z,2.1
2023-02-04T00:24:01.228Z,2.1
2023-02-04T00:25:01.279Z,2.1
2023-02-04T00:26:01.245Z,2.3
2023-02-04T00:27:01.775Z,2.1
2023-02-04T00:28:01.303Z,2.1
2023-02-04T00:29:01.196Z,2.1
2023-02-04T00:30:01.280Z,2.3
2023-02-04T00:31:01.656Z,2.1
2023-02-04T00:32:01.377Z,2.1
2023-02-04T00:33:01.209Z,1.9
2023-02-04T00:34:01.641Z,1.8
2023-02-04T00:35:01.273Z,1.8
2023-02-04T00:36:01.199Z,1.8
2023-02-04T00:37:01.574Z,1.8
2023-02-04T00:38:01.204Z,1.8
2023-02-04T00:39:01.202Z,1.6
2023-02-04T00:40:01.612Z,1.8
2023-02-04T00:41:01.203Z,1.6
2023-02-04T00:42:01.215Z,1.6
2023-02-04T00:43:01.586Z,1.6
2023-02-04T00:44:01.548Z,1.6
2023-02-04T00:45:01.367Z,1.6
2023-02-04T00:46:01.331Z,1.6
2023-02-04T00:47:01.556Z,1.4
2023-02-04T00:48:01.218Z,1.2
2023-02-04T00:49:01.212Z,1.2
2023-02-04T00:50:01.602Z,1.4
2023-02-04T00:51:01.590Z,1.4
2023-02-04T00:52:01.914Z,1.6
2023-02-04T00:53:01.197Z,1.6
2023-02-04T00:54:01.205Z,1.6
2023-02-04T00:55:01.215Z,1.6
2023-02-04T00:56:01.793Z,1.6
2023-02-04T00:57:01.656Z,1.6
2023-02-04T00:58:01.581Z,1.6
2023-02-04T00:59:01.590Z,1.6
2023-02-04T01:00:01.308Z,1.6
2023-02-04T01:01:01.331Z,1.8
2023-02-04T01:02:01.544Z,1.6
2023-02-04T01:03:01.267Z,1.4
2023-02-04T01:04:01.284Z,1.4
2023-02-04T01:05:01.236Z,1.4
2023-02-04T01:06:01.242Z,1.2
2023-02-04T01:07:01.979Z,1.0
2023-02-04T01:08:01.240Z,0.9
2023-02-04T01:09:02.812Z,0.5
2023-02-04T01:10:01.565Z,0.5
2023-02-04T01:11:01.558Z,0.3
2023-02-04T01:12:01.246Z,0.3
2023-02-04T01:13:01.267Z,0.5
2023-02-04T01:14:01.671Z,0.3
2023-02-04T01:15:01.251Z,0.5
2023-02-04T01:16:01.314Z,0.5
2023-02-04T01:17:01.579Z,0.1
2023-02-04T01:18:01.885Z,0.3
2023-02-04T01:19:01.244Z,0.5
2023-02-04T01:20:01.230Z,0.3
2023-02-04T01:21:01.276Z,0.5
2023-02-04T01:22:01.230Z,0.3
2023-02-04T01:23:01.208Z,0.3
2023-02-04T01:24:01.667Z,0.3
2023-02-04T01:25:01.589Z,0.1
2023-02-04T01:26:01.206Z,0.1
2023-02-04T01:27:01.229Z,0.0
2023-02-04T01:28:01.643Z,0.1
2023-02-04T01:29:01.338Z,0.1
2023-02-04T01:30:01.664Z,0.0
2023-02-04T01:31:01.674Z,0.0
2023-02-04T01:32:01.677Z,-0.2
2023-02-04T01:33:01.215Z,-0.4
2023-02-04T01:34:01.587Z,-0.2
2023-02-04T01:35:01.658Z,0.0
2023-02-04T01:36:01.642Z,0.1
2023-02-04T01:37:01.235Z,0.0
2023-02-04T01:38:01.619Z,0.1
2023-02-04T01:39:01.223Z,0.0
2023-02-04T01:40:02.122Z,0.1
2023-02-04T01:41:02.337Z,0.0
2023-02-04T01:42:01.916Z,0.0
2023-02-04T01:43:02.007Z,0.0
2023-02-04T01:44:01.329Z,0.1
2023-02-04T01:45:01.816Z,0.1
2023-02-04T01:46:01.354Z,0.0
2023-02-04T01:47:01.265Z,0.3
2023-02-04T01:48:03.430Z,0.1
2023-02-04T01:49:01.802Z,0.0
2023-02-04T01:50:01.841Z,0.1
2023-02-04T01:51:05.544Z,0.0
2023-02-04T01:52:02.731Z,-0.2
2023-02-04T01:53:01.818Z,-0.4
2023-02-04T01:54:01.619Z,-0.4
2023-02-04T01:55:01.888Z,-0.6
2023-02-04T01:56:10.683Z,-0.8
2023-02-04T01:57:01.669Z,-0.9
2023-02-04T01:58:01.256Z,-0.9
2023-02-04T01:59:01.339Z,-0.9
2023-02-04T02:00:01.318Z,-0.9
2023-02-04T02:01:01.665Z,-0.8
2023-02-04T02:02:01.410Z,-0.6
2023-02-04T02:03:01.587Z,-0.6
2023-02-04T02:04:02.271Z,-0.4
2023-02-04T02:05:01.605Z,-0.4
2023-02-04T02:06:01.555Z,-0.6
2023-02-04T02:07:05.124Z,-0.4
2023-02-04T02:08:03.985Z,-0.6
2023-02-04T02:09:02.757Z,-0.8
2023-02-04T02:10:02.288Z,-0.8
2023-02-04T02:11:02.061Z,-0.8
2023-02-04T02:12:02.994Z,-0.9
2023-02-04T02:13:01.623Z,-0.9
2023-02-04T02:14:02.402Z,-1.1
2023-02-04T02:15:01.706Z,-1.3
2023-02-04T02:16:01.582Z,-1.1
2023-02-04T02:17:01.687Z,-1.3
2023-02-04T02:18:01.594Z,-1.5
2023-02-04T02:19:01.646Z,-1.7
2023-02-04T02:20:01.569Z,-1.8
2023-02-04T02:21:11.259Z,-2.0
2023-02-04T02:22:06.168Z,-1.8
2023-02-04T02:23:12.000Z,-2.0
2023-02-04T02:24:20.645Z,-1.8
2023-02-04T02:25:01.235Z,-1.8
2023-02-04T02:26:01.224Z,-2.0
2023-02-04T02:27:04.780Z,-2.0
2023-02-04T02:28:04.727Z,-1.8
2023-02-04T02:29:01.244Z,-1.8
2023-02-04T02:30:01.609Z,-2.4
2023-02-04T02:31:01.446Z,-2.4
2023-02-04T02:32:02.184Z,-2.4
2023-02-04T02:33:01.926Z,-2.6
2023-02-04T02:34:01.253Z,-2.4
2023-02-04T02:35:02.218Z,-2.4
2023-02-04T02:36:01.637Z,-2.2
2023-02-04T02:37:02.649Z,-2.2
2023-02-04T02:38:01.643Z,-2.4
2023-02-04T02:39:01.314Z,-2.4
2023-02-04T02:40:01.916Z,-2.6
2023-02-04T02:41:02.242Z,-2.7
2023-02-04T02:42:01.910Z,-2.9
2023-02-04T02:43:01.780Z,-2.7
2023-02-04T02:44:02.145Z,-2.9
2023-02-04T02:45:04.410Z,-3.1
2023-02-04T02:46:01.978Z,-3.3
2023-02-04T02:47:01.704Z,-3.3
2023-02-04T02:48:02.311Z,-3.6
2023-02-04T02:49:01.248Z,-3.6
2023-02-04T02:50:01.257Z,-3.6
2023-02-04T02:51:01.695Z,-3.8
2023-02-04T02:52:01.665Z,-3.8
2023-02-04T02:53:01.574Z,-3.6
2023-02-04T02:54:01.602Z,-3.5
2023-02-04T02:55:01.226Z,-3.5
2023-02-04T02:56:02.162Z,-3.6
2023-02-04T02:57:01.833Z,-3.6
2023-02-04T02:58:01.399Z,-3.8
2023-02-04T02:59:12.628Z,-3.6
2023-02-04T03:00:01.228Z,-3.5
2023-02-04T03:01:04.487Z,-3.5
2023-02-04T03:02:03.189Z,-3.5
2023-02-04T03:03:06.797Z,-3.8
2023-02-04T03:04:01.258Z,-3.6
2023-02-04T03:05:01.636Z,-3.8
2023-02-04T03:06:08.079Z,-4.2
2023-02-04T03:07:02.231Z,-4.2
2023-02-04T03:08:03.095Z,-4.2
2023-02-04T03:09:02.076Z,-4.0
2023-02-04T03:10:01.940Z,-4.2
2023-02-04T03:11:01.464Z,-4.4
2023-02-04T03:12:02.551Z,-4.4
2023-02-04T03:13:02.100Z,-4.4
2023-02-04T03:14:02.928Z,-4.5
2023-02-04T03:15:02.200Z,-4.5
2023-02-04T03:16:01.329Z,-4.4
2023-02-04T03:17:03.989Z,-4.4
2023-02-04T03:18:02.399Z,-4.4
2023-02-04T03:19:02.253Z,-4.5
2023-02-04T03:20:03.396Z,-4.2
2023-02-04T03:21:02.985Z,-4.4
2023-02-04T03:22:02.480Z,-4.4
2023-02-04T03:23:01.684Z,-4.5
2023-02-04T03:24:01.856Z,-4.5
2023-02-04T03:25:01.657Z,-4.9
2023-02-04T03:26:02.001Z,-4.9
2023-02-04T03:27:01.589Z,-5.3
2023-02-04T03:28:01.770Z,-5.1
2023-02-04T03:29:01.233Z,-5.1
2023-02-04T03:30:01.846Z,-5.3
2023-02-04T03:31:01.402Z,-5.3
2023-02-04T03:32:01.731Z,-5.3
2023-02-04T03:33:01.626Z,-5.4
2023-02-04T03:34:01.574Z,-5.3
2023-02-04T03:35:01.263Z,-5.3
2023-02-04T03:36:01.667Z,-5.3
2023-02-04T03:37:01.562Z,-5.3
2023-02-04T03:38:01.222Z,-5.3
2023-02-04T03:39:01.655Z,-5.4
2023-02-04T03:40:01.699Z,-5.6
2023-02-04T03:41:02.024Z,-5.8
2023-02-04T03:42:01.581Z,-5.8
2023-02-04T03:43:01.215Z,-5.6
2023-02-04T03:44:01.578Z,-5.6
2023-02-04T03:45:01.380Z,-5.6
2023-02-04T03:46:01.282Z,-5.6
2023-02-04T03:47:01.232Z,-5.8
2023-02-04T03:48:01.557Z,-5.8
2023-02-04T03:49:01.217Z,-5.8
2023-02-04T03:50:01.644Z,-5.8
2023-02-04T03:51:01.566Z,-5.8
2023-02-04T03:52:01.355Z,-6.0
2023-02-04T03:53:01.589Z,-6.2
2023-02-04T03:54:01.247Z,-6.2
2023-02-04T03:55:01.221Z,-6.2
2023-02-04T03:56:01.242Z,-6.2
2023-02-04T03:57:01.599Z,-6.0
2023-02-04T03:58:01.999Z,-5.8
2023-02-04T03:59:01.208Z,-6.0
2023-02-04T04:00:01.320Z,-6.0
2023-02-04T04:01:01.652Z,-5.8
2023-02-04T04:02:01.641Z,-6.0
2023-02-04T04:03:01.719Z,-5.8
2023-02-04T04:04:01.590Z,-5.6
2023-02-04T04:05:01.206Z,-5.8
2023-02-04T04:06:01.681Z,-5.8
2023-02-04T04:07:01.211Z,-5.8
2023-02-04T04:08:01.221Z,-5.8
2023-02-04T04:09:01.701Z,-5.8
2023-02-04T04:10:01.585Z,-5.6
2023-02-04T04:11:01.721Z,-5.6
2023-02-04T04:12:01.573Z,-5.8
2023-02-04T04:13:01.580Z,-5.8
2023-02-04T04:14:01.817Z,-6.0
2023-02-04T04:15:01.239Z,-5.8
2023-02-04T04:16:01.611Z,-6.2
2023-02-04T04:17:01.573Z,-6.3
2023-02-04T04:18:01.241Z,-6.3
2023-02-04T04:19:01.221Z,-6.3
2023-02-04T04:20:01.619Z,-6.5
2023-02-04T04:21:02.077Z,-6.7
2023-02-04T04:22:01.273Z,-6.9
2023-02-04T04:23:01.818Z,-6.9
2023-02-04T04:24:01.641Z,-6.9
2023-02-04T04:25:01.552Z,-7.1
2023-02-04T04:26:01.565Z,-7.2
2023-02-04T04:27:01.788Z,-7.4
2023-02-04T04:28:01.619Z,-7.2
2023-02-04T04:29:01.213Z,-7.2
2023-02-04T04:30:01.640Z,-7.2
2023-02-04T04:31:01.703Z,-7.2
2023-02-04T04:32:01.632Z,-7.1
2023-02-04T04:33:01.547Z,-6.9
2023-02-04T04:34:01.556Z,-6.9
2023-02-04T04:35:01.686Z,-6.9
2023-02-04T04:36:01.443Z,-6.9
2023-02-04T04:37:01.854Z,-7.1
2023-02-04T04:38:01.316Z,-7.2
2023-02-04T04:39:01.574Z,-7.4
2023-02-04T04:40:01.220Z,-7.2
2023-02-04T04:41:01.650Z,-7.4
2023-02-04T04:42:01.227Z,-7.2
2023-02-04T04:43:01.194Z,-7.2
2023-02-04T04:44:01.208Z,-7.1
2023-02-04T04:45:02.049Z,-7.2
2023-02-04T04:46:01.610Z,-7.2
2023-02-04T04:47:01.479Z,-7.2
2023-02-04T04:48:01.202Z,-7.4
2023-02-04T04:49:01.198Z,-7.6
2023-02-04T04:50:01.573Z,-7.4
2023-02-04T04:51:01.556Z,-7.2
2023-02-04T04:52:01.544Z,-7.4
2023-02-04T04:53:01.213Z,-7.4
2023-02-04T04:54:01.542Z,-7.2
2023-02-04T04:55:01.664Z,-7.2
2023-02-04T04:56:01.531Z,-7.2
2023-02-04T04:57:01.570Z,-7.4
2023-02-04T04:58:01.457Z,-7.6
2023-02-04T04:59:01.208Z,-7.6
2023-02-04T05:00:01.210Z,-7.6
2023-02-04T05:01:01.626Z,-7.6
2023-02-04T05:02:01.559Z,-7.6
2023-02-04T05:03:01.611Z,-7.6
2023-02-04T05:04:01.559Z,-7.6
2023-02-04T05:05:01.351Z,-7.6
2023-02-04T05:06:01.600Z,-7.4
2023-02-04T05:07:01.201Z,-7.6
2023-02-04T05:08:01.194Z,-7.4
2023-02-04T05:09:01.811Z,-7.6
2023-02-04T05:10:01.328Z,-7.8
2023-02-04T05:11:01.235Z,-7.6
2023-02-04T05:12:01.530Z,-7.8
2023-02-04T05:13:01.240Z,-7.8
2023-02-04T05:14:01.606Z,-7.8
2023-02-04T05:15:01.572Z,-7.8
2023-02-04T05:16:01.256Z,-7.8
2023-02-04T05:17:01.242Z,-7.6
2023-02-04T05:18:01.799Z,-7.4
2023-02-04T05:19:01.558Z,-7.4
2023-02-04T05:20:01.847Z,-7.4
2023-02-04T05:21:01.210Z,-7.4
2023-02-04T05:22:01.623Z,-7.6
2023-02-04T05:23:01.561Z,-7.6
2023-02-04T05:24:01.209Z,-7.6
2023-02-04T05:25:01.210Z,-7.6
2023-02-04T05:26:01.249Z,-7.6
2023-02-04T05:27:01.670Z,-7.4
2023-02-04T05:28:01.385Z,-7.4
2023-02-04T05:29:01.724Z,-7.4
2023-02-04T05:30:01.652Z,-7.6
2023-02-04T05:31:01.360Z,-7.6
2023-02-04T05:32:01.303Z,-7.6
2023-02-04T05:33:01.218Z,-7.8
2023-02-04T05:34:01.551Z,-7.8
2023-02-04T05:35:01.218Z,-7.8
2023-02-04T05:36:01.556Z,-7.8
2023-02-04T05:37:01.210Z,-8.0
2023-02-04T05:38:01.224Z,-8.0
2023-02-04T05:39:01.569Z,-8.0
2023-02-04T05:40:01.682Z,-7.8
2023-02-04T05:41:01.206Z,-7.8
2023-02-04T05:42:01.538Z,-8.0
2023-02-04T05:43:01.563Z,-8.0
2023-02-04T05:44:02.995Z,-7.8
2023-02-04T05:45:01.266Z,-7.8
2023-02-04T05:46:01.346Z,-7.8
2023-02-04T05:47:01.203Z,-7.8
2023-02-04T05:48:01.625Z,-7.6
2023-02-04T05:49:01.273Z,-7.8
2023-02-04T05:50:01.224Z,-8.0
2023-02-04T05:51:01.211Z,-7.8
2023-02-04T05:52:01.233Z,-8.1
2023-02-04T05:53:02.057Z,-8.1
2023-02-04T05:54:01.692Z,-8.1
2023-02-04T05:55:01.244Z,-8.1
2023-02-04T05:56:01.789Z,-8.0
2023-02-04T05:57:01.224Z,-8.1
2023-02-04T05:58:01.208Z,-8.3
2023-02-04T05:59:01.541Z,-8.5
2023-02-04T06:00:01.654Z,-8.3
2023-02-04T06:01:02.642Z,-8.3
2023-02-04T06:02:01.207Z,-8.3
2023-02-04T06:03:01.288Z,-8.1
2023-02-04T06:04:01.480Z,-8.0
2023-02-04T06:05:01.206Z,-8.0
2023-02-04T06:06:01.579Z,-7.8
2023-02-04T06:07:01.220Z,-8.0
2023-02-04T06:08:01.208Z,-7.8
2023-02-04T06:09:01.299Z,-8.1
2023-02-04T06:10:01.228Z,-8.1
2023-02-04T06:11:01.546Z,-8.3
2023-02-04T06:12:01.651Z,-8.5
2023-02-04T06:13:01.222Z,-8.5
2023-02-04T06:14:01.569Z,-8.5
2023-02-04T06:15:01.761Z,-8.7
2023-02-04T06:16:01.214Z,-8.7
2023-02-04T06:17:01.577Z,-8.7
2023-02-04T06:18:01.238Z,-8.5
2023-02-04T06:19:01.659Z,-8.5
2023-02-04T06:20:01.562Z,-8.5
2023-02-04T06:21:01.552Z,-8.5
2023-02-04T06:22:01.545Z,-8.7
2023-02-04T06:23:01.571Z,-8.7
2023-02-04T06:24:01.553Z,-8.9
2023-02-04T06:25:01.561Z,-9.2
2023-02-04T06:26:01.777Z,-9.2
2023-02-04T06:27:01.248Z,-9.2
2023-02-04T06:28:01.289Z,-9.2
2023-02-04T06:29:01.789Z,-9.0
2023-02-04T06:30:01.215Z,-9.2
2023-02-04T06:31:01.301Z,-9.4
2023-02-04T06:32:01.615Z,-9.8
2023-02-04T06:33:01.552Z,-9.8
2023-02-04T06:34:01.198Z,-9.6
2023-02-04T06:35:01.221Z,-9.6
2023-02-04T06:36:01.721Z,-9.4
2023-02-04T06:37:01.457Z,-9.4
2023-02-04T06:38:01.233Z,-9.6
2023-02-04T06:39:01.585Z,-9.6
2023-02-04T06:40:01.818Z,-9.6
2023-02-04T06:41:01.226Z,-9.6
2023-02-04T06:42:01.482Z,-9.8
2023-02-04T06:43:02.333Z,-9.9
2023-02-04T06:44:01.546Z,-9.8
2023-02-04T06:45:01.755Z,-9.6
2023-02-04T06:46:01.656Z,-9.9
2023-02-04T06:47:01.208Z,-9.9
2023-02-04T06:48:01.655Z,-9.6
2023-02-04T06:49:01.208Z,-9.8
2023-02-04T06:50:01.559Z,-9.9
2023-02-04T06:51:01.604Z,-9.8
2023-02-04T06:52:01.237Z,-9.8
2023-02-04T06:53:01.232Z,-9.6
2023-02-04T06:54:01.223Z,-9.6
2023-02-04T06:55:01.229Z,-9.6
2023-02-04T06:56:01.575Z,-9.6
2023-02-04T06:57:01.835Z,-9.6
2023-02-04T06:58:01.570Z,-9.4
2023-02-04T06:59:03.322Z,-9.4
2023-02-04T07:00:01.242Z,-9.4
2023-02-04T07:01:01.239Z,-9.6
2023-02-04T07:02:01.665Z,-9.6
2023-02-04T07:03:01.212Z,-9.8
2023-02-04T07:04:01.655Z,-9.8
2023-02-04T07:05:01.282Z,-9.8
2023-02-04T07:06:01.207Z,-9.8
2023-02-04T07:07:01.286Z,-9.8
2023-02-04T07:08:01.463Z,-9.8
2023-02-04T07:09:01.552Z,-9.8
2023-02-04T07:10:01.926Z,-9.8
2023-02-04T07:11:01.227Z,-9.6
2023-02-04T07:12:01.230Z,-9.4
2023-02-04T07:13:01.544Z,-9.8
2023-02-04T07:14:02.109Z,-9.8
2023-02-04T07:15:01.568Z,-9.6
2023-02-04T07:16:01.667Z,-9.6
2023-02-04T07:17:01.267Z,-9.6
2023-02-04T07:18:01.585Z,-9.4
2023-02-04T07:19:01.613Z,-9.4
2023-02-04T07:20:01.577Z,-9.4
2023-02-04T07:21:01.463Z,-9.6
2023-02-04T07:22:01.630Z,-9.4
2023-02-04T07:23:01.256Z,-9.6
2023-02-04T07:24:01.557Z,-9.6
2023-02-04T07:25:01.317Z,-9.8
2023-02-04T07:26:01.584Z,-9.8
2023-02-04T07:27:02.585Z,-9.8
2023-02-04T07:28:01.603Z,-9.9
2023-02-04T07:29:01.199Z,-9.9
2023-02-04T07:30:01.561Z,-9.8
2023-02-04T07:31:01.711Z,-9.6
2023-02-04T07:32:01.978Z,-9.8
2023-02-04T07:33:01.555Z,-9.6
2023-02-04T07:34:01.224Z,-9.8
2023-02-04T07:35:01.588Z,-9.6
2023-02-04T07:36:01.771Z,-9.8
2023-02-04T07:37:01.676Z,-9.8
2023-02-04T07:38:01.230Z,-9.6
2023-02-04T07:39:01.206Z,-9.6
2023-02-04T07:40:01.604Z,-9.6
2023-02-04T07:41:01.201Z,-9.6
2023-02-04T07:42:01.231Z,-9.4
2023-02-04T07:43:01.687Z,-9.4
2023-02-04T07:44:01.779Z,-9.2
2023-02-04T07:45:01.552Z,-9.2
2023-02-04T07:46:01.610Z,-9.2
2023-02-04T07:47:01.242Z,-9.2
2023-02-04T07:48:01.198Z,-9.2
2023-02-04T07:49:01.199Z,-9.2
2023-02-04T07:50:01.196Z,-9.0
2023-02-04T07:51:01.360Z,-8.9
2023-02-04T07:52:01.540Z,-9.0
2023-02-04T07:53:01.207Z,-9.0
2023-02-04T07:54:01.786Z,-9.0
2023-02-04T07:55:01.213Z,-9.6
2023-02-04T07:56:01.214Z,-9.6
2023-02-04T07:57:01.233Z,-9.6
2023-02-04T07:58:01.200Z,-9.6
2023-02-04T07:59:01.259Z,-9.6
2023-02-04T08:00:01.636Z,-9.6
2023-02-04T08:01:01.590Z,-9.4
2023-02-04T08:02:01.200Z,-9.2
2023-02-04T08:03:01.275Z,-9.2
2023-02-04T08:04:01.216Z,-9.2
2023-02-04T08:05:01.455Z,-9.8
2023-02-04T08:06:01.600Z,-9.8
2023-02-04T08:07:01.182Z,-9.8
2023-02-04T08:08:01.192Z,-9.8
2023-02-04T08:09:01.194Z,-9.6
2023-02-04T08:10:01.212Z,-9.6
2023-02-04T08:11:01.205Z,-9.6
2023-02-04T08:12:01.554Z,-9.6
2023-02-04T08:13:01.193Z,-9.6
2023-02-04T08:14:01.196Z,-9.8
2023-02-04T08:15:01.242Z,-9.9
2023-02-04T08:16:01.362Z,-9.9
2023-02-04T08:17:01.192Z,-9.9
2023-02-04T08:18:01.564Z,-10.1
2023-02-04T08:19:01.194Z,-9.9
2023-02-04T08:20:01.586Z,-9.9
2023-02-04T08:21:01.574Z,-9.8
2023-02-04T08:22:01.188Z,-9.6
2023-02-04T08:23:01.190Z,-9.6
2023-02-04T08:24:01.564Z,-9.8
2023-02-04T08:25:01.252Z,-9.8
2023-02-04T08:26:01.563Z,-9.8
2023-02-04T08:27:01.684Z,-9.8
2023-02-04T08:28:01.605Z,-9.8
2023-02-04T08:29:01.543Z,-9.8
2023-02-04T08:30:01.618Z,-9.6
2023-02-04T08:31:01.648Z,-9.6
2023-02-04T08:32:01.677Z,-9.6
2023-02-04T08:33:01.192Z,-9.4
2023-02-04T08:34:01.285Z,-9.4
2023-02-04T08:35:01.633Z,-9.4
2023-02-04T08:36:01.696Z,-9.4
2023-02-04T08:37:01.572Z,-9.6
2023-02-04T08:38:01.522Z,-9.6
2023-02-04T08:39:01.186Z,-9.8
2023-02-04T08:40:01.218Z,-9.6
2023-02-04T08:41:01.235Z,-9.6
2023-02-04T08:42:01.539Z,-9.6
2023-02-04T08:43:01.188Z,-9.6
2023-02-04T08:44:01.583Z,-9.8
2023-02-04T08:45:01.547Z,-9.6
2023-02-04T08:46:01.200Z,-9.6
2023-02-04T08:47:01.192Z,-9.6
2023-02-04T08:48:01.205Z,-9.4
2023-02-04T08:49:01.539Z,-9.8
2023-02-04T08:50:01.653Z,-10.1
2023-02-04T08:51:01.209Z,-10.1
2023-02-04T08:52:02.210Z,-10.3
2023-02-04T08:53:01.238Z,-10.3
2023-02-04T08:54:01.606Z,-10.3
2023-02-04T08:55:01.379Z,-10.3
2023-02-04T08:56:01.204Z,-10.3
2023-02-04T08:57:02.100Z,-10.1
2023-02-04T08:58:01.221Z,-10.1
2023-02-04T08:59:01.572Z,-10.1
2023-02-04T09:00:01.462Z,-9.9
2023-02-04T09:01:02.281Z,-9.9
2023-02-04T09:02:01.704Z,-9.9
2023-02-04T09:03:01.572Z,-9.8
2023-02-04T09:04:01.219Z,-9.6
2023-02-04T09:05:01.212Z,-9.6
2023-02-04T09:06:01.579Z,-9.6
2023-02-04T09:07:01.206Z,-9.8
2023-02-04T09:08:01.556Z,-9.8
2023-02-04T09:09:01.609Z,-9.8
2023-02-04T09:10:01.244Z,-9.6
2023-02-04T09:11:01.808Z,-9.4
2023-02-04T09:12:01.575Z,-9.4
2023-02-04T09:13:01.616Z,-9.4
2023-02-04T09:14:01.223Z,-9.6
2023-02-04T09:15:01.220Z,-9.4
2023-02-04T09:16:01.265Z,-9.4
2023-02-04T09:17:01.602Z,-9.4
2023-02-04T09:18:01.233Z,-9.4
2023-02-04T09:19:01.240Z,-9.2
2023-02-04T09:20:01.258Z,-9.0
2023-02-04T09:21:01.605Z,-9.0
2023-02-04T09:22:01.367Z,-9.0
2023-02-04T09:23:01.575Z,-9.4
2023-02-04T09:24:01.584Z,-9.2
2023-02-04T09:25:01.232Z,-9.4
2023-02-04T09:26:01.228Z,-9.4
2023-02-04T09:27:01.222Z,-9.4
2023-02-04T09:28:01.687Z,-9.4
2023-02-04T09:29:01.234Z,-9.2
2023-02-04T09:30:01.566Z,-9.2
2023-02-04T09:31:03.064Z,-9.2
2023-02-04T09:32:01.283Z,-9.2
2023-02-04T09:33:01.588Z,-9.4
2023-02-04T09:34:01.226Z,-9.4
2023-02-04T09:35:01.580Z,-9.6
2023-02-04T09:36:01.918Z,-9.6
2023-02-04T09:37:01.582Z,-9.4
2023-02-04T09:38:01.824Z,-9.4
2023-02-04T09:39:01.226Z,-9.2
2023-02-04T09:40:01.632Z,-9.4
2023-02-04T09:41:04.398Z,-9.4
2023-02-04T09:42:01.713Z,-9.2
2023-02-04T09:43:03.638Z,-9.2
2023-02-04T09:44:04.250Z,-9.4
2023-02-04T09:45:01.708Z,-9.4
2023-02-04T09:46:02.793Z,-9.4
2023-02-04T09:47:01.296Z,-9.4
2023-02-04T09:48:04.496Z,-9.4
2023-02-04T09:49:01.240Z,-9.2
2023-02-04T09:50:01.652Z,-9.2
2023-02-04T09:51:04.719Z,-9.2
2023-02-04T09:52:01.316Z,-9.2
2023-02-04T09:53:04.670Z,-9.2
2023-02-04T09:54:06.267Z,-9.2
2023-02-04T09:55:01.846Z,-9.6
2023-02-04T09:56:01.326Z,-9.4
2023-02-04T09:57:01.227Z,-9.6
2023-02-04T09:58:02.006Z,-9.4
2023-02-04T09:59:03.184Z,-9.4
2023-02-04T10:00:01.605Z,-9.4
2023-02-04T10:01:13.077Z,-9.6
2023-02-04T10:02:05.004Z,-9.4
2023-02-04T10:03:02.236Z,-9.4
2023-02-04T10:04:01.743Z,-9.2
2023-02-04T10:05:01.255Z,-9.2
2023-02-04T10:06:01.846Z,-9.4
2023-02-04T10:07:01.268Z,-9.4
2023-02-04T10:08:02.969Z,-9.4
2023-02-04T10:09:01.580Z,-9.6
2023-02-04T10:10:01.627Z,-9.4
2023-02-04T10:11:01.271Z,-9.4
2023-02-04T10:12:01.219Z,-9.4
2023-02-04T10:13:02.652Z,-9.6
2023-02-04T10:14:01.364Z,-9.8
2023-02-04T10:15:01.619Z,-9.8
2023-02-04T10:16:08.880Z,-9.8
2023-02-04T10:17:01.766Z,-9.8
2023-02-04T10:18:05.852Z,-9.6
2023-02-04T10:19:04.043Z,-9.8
2023-02-04T10:20:01.367Z,-9.6
2023-02-04T10:21:13.828Z,-9.6
2023-02-04T10:22:04.886Z,-9.4
2023-02-04T10:23:01.284Z,-9.6
2023-02-04T10:24:03.389Z,-9.4
2023-02-04T10:25:01.193Z,-9.2
2023-02-04T10:26:03.091Z,-9.4
2023-02-04T10:27:09.356Z,-9.4
2023-02-04T10:28:01.400Z,-9.2
2023-02-04T10:29:03.286Z,-9.4
2023-02-04T10:30:01.588Z,-9.4
2023-02-04T10:31:02.073Z,-9.4
2023-02-04T10:32:01.424Z,-9.6
2023-02-04T10:33:12.292Z,-9.6
2023-02-04T10:34:09.000Z,-9.4
2023-02-04T10:35:02.875Z,-9.4
2023-02-04T10:36:01.350Z,-9.4
2023-02-04T10:37:12.039Z,-9.4
2023-02-04T10:38:04.474Z,-9.4
2023-02-04T10:39:02.971Z,-9.6
2023-02-04T10:40:01.216Z,-9.6
2023-02-04T10:41:01.982Z,-9.6
2023-02-04T10:42:01.215Z,-9.4
2023-02-04T10:43:07.173Z,-9.4
2023-02-04T10:44:05.627Z,-9.6
2023-02-04T10:45:01.639Z,-9.6
2023-02-04T10:46:02.917Z,-9.6
2023-02-04T10:47:03.487Z,-9.6
2023-02-04T10:48:01.279Z,-9.6
2023-02-04T10:49:03.673Z,-9.4
2023-02-04T10:50:06.772Z,-9.4
2023-02-04T10:51:01.235Z,-9.4
2023-02-04T10:52:12.192Z,-9.8
2023-02-04T10:53:01.372Z,-9.4
2023-02-04T10:54:01.228Z,-9.4
2023-02-04T10:55:02.797Z,-9.4
2023-02-04T10:56:01.858Z,-9.4
2023-02-04T10:57:13.674Z,-9.2
2023-02-04T10:58:01.212Z,-9.4
2023-02-04T10:59:01.798Z,-9.4
2023-02-04T11:00:03.158Z,-9.4
2023-02-04T11:01:01.444Z,-9.2
2023-02-04T11:02:12.290Z,-9.4
2023-02-04T11:03:06.245Z,-9.2
2023-02-04T11:04:01.641Z,-9.4
2023-02-04T11:05:03.099Z,-9.4
2023-02-04T11:06:01.264Z,-9.4
2023-02-04T11:07:01.272Z,-9.4
2023-02-04T11:08:02.383Z,-9.4
2023-02-04T11:09:01.691Z,-9.6
2023-02-04T11:10:01.720Z,-9.4
2023-02-04T11:11:04.810Z,-9.4
2023-02-04T11:12:01.485Z,-9.4
2023-02-04T11:13:03.857Z,-9.4
2023-02-04T11:14:01.917Z,-9.6
2023-02-04T11:15:01.966Z,-9.8
2023-02-04T11:16:20.277Z,-9.6
2023-02-04T11:17:01.587Z,-9.6
2023-02-04T11:18:03.747Z,-9.6
2023-02-04T11:19:03.796Z,-9.6
2023-02-04T11:20:15.071Z,-9.6
2023-02-04T11:21:11.113Z,-9.6
2023-02-04T11:22:16.293Z,-9.4
2023-02-04T11:23:15.510Z,-9.6
2023-02-04T11:24:15.496Z,-9.6
2023-02-04T11:25:01.640Z,-9.4
2023-02-04T11:26:04.212Z,-9.8
2023-02-04T11:27:07.156Z,-9.6
2023-02-04T11:28:15.019Z,-9.8
2023-02-04T11:29:20.621Z,-9.8
2023-02-04T11:30:05.408Z,-9.8
2023-02-04T11:31:02.651Z,-9.8
2023-02-04T11:32:04.633Z,-9.8
2023-02-04T11:33:03.888Z,-9.6
2023-02-04T11:34:12.111Z,-9.6
2023-02-04T11:35:20.671Z,-9.6
2023-02-04T11:36:02.528Z,-9.6
2023-02-04T11:37:14.607Z,-9.6
2023-02-04T11:38:01.631Z,-9.6
2023-02-04T11:39:14.442Z,-9.6
2023-02-04T11:40:11.309Z,-9.6
2023-02-04T11:41:02.041Z,-9.4
2023-02-04T11:42:01.459Z,-9.6
2023-02-04T11:43:08.600Z,-9.6
2023-02-04T11:44:01.672Z,-9.8
2023-02-04T11:45:12.004Z,-9.8
2023-02-04T11:46:04.107Z,-9.8
2023-02-04T11:47:06.206Z,-9.8
2023-02-04T11:48:04.017Z,-9.8
2023-02-04T11:49:01.833Z,-9.8
2023-02-04T11:50:04.458Z,-9.6
2023-02-04T11:51:10.628Z,-9.6
2023-02-04T11:52:04.642Z,-9.6
2023-02-04T11:53:01.843Z,-9.4
2023-02-04T11:54:01.560Z,-9.4
2023-02-04T11:55:01.206Z,-9.4
2023-02-04T11:56:01.777Z,-9.4
2023-02-04T11:57:01.626Z,-9.4
2023-02-04T11:58:01.728Z,-9.4
2023-02-04T11:59:01.562Z,-9.2
2023-02-04T12:00:01.260Z,-9.2
2023-02-04T12:01:01.557Z,-9.4
2023-02-04T12:02:14.932Z,-9.4
2023-02-04T12:03:12.055Z,-9.4
2023-02-04T12:04:03.698Z,-9.2
2023-02-04T12:05:10.375Z,-9.2
2023-02-04T12:06:02.517Z,-9.0
2023-02-04T12:07:03.069Z,-9.2
2023-02-04T12:08:11.667Z,-9.4
2023-02-04T12:09:05.826Z,-9.4
2023-02-04T12:10:12.360Z,-9.2
2023-02-04T12:11:05.996Z,-9.2
2023-02-04T12:12:02.956Z,-9.0
2023-02-04T12:13:12.885Z,-9.0
2023-02-04T12:14:08.398Z,-9.2
2023-02-04T12:15:08.552Z,-9.0
2023-02-04T12:16:04.482Z,-9.0
2023-02-04T12:17:14.783Z,-9.0
2023-02-04T12:18:04.550Z,-8.9
2023-02-04T12:19:01.361Z,-8.9
2023-02-04T12:20:01.234Z,-8.7
2023-02-04T12:21:02.545Z,-8.5
2023-02-04T12:22:01.201Z,-8.7
2023-02-04T12:23:01.669Z,-8.7
2023-02-04T12:24:01.219Z,-9.0
2023-02-04T12:25:01.233Z,-8.9
2023-02-04T12:26:01.258Z,-8.9
2023-02-04T12:27:01.540Z,-9.0
2023-02-04T12:28:01.613Z,-8.9
2023-02-04T12:29:01.630Z,-8.9
2023-02-04T12:30:01.232Z,-8.7
2023-02-04T12:31:01.996Z,-8.9
2023-02-04T12:32:01.286Z,-8.7
2023-02-04T12:33:01.251Z,-8.7
2023-02-04T12:34:01.744Z,-8.9
2023-02-04T12:35:01.194Z,-8.9
2023-02-04T12:36:01.559Z,-8.7
2023-02-04T12:37:01.219Z,-8.7
2023-02-04T12:38:01.579Z,-8.7
2023-02-04T12:39:01.241Z,-8.3
2023-02-04T12:40:01.581Z,-8.1
2023-02-04T12:41:01.212Z,-8.1
2023-02-04T12:42:01.225Z,-7.8
2023-02-04T12:43:01.228Z,-7.8
2023-02-04T12:44:01.234Z,-7.8
2023-02-04T12:45:01.200Z,-7.8
2023-02-04T12:46:01.207Z,-8.0
2023-02-04T12:47:01.215Z,-7.8
2023-02-04T12:48:01.255Z,-7.8
2023-02-04T12:49:01.975Z,-7.6
2023-02-04T12:50:01.554Z,-7.8
2023-02-04T12:51:01.445Z,-7.6
2023-02-04T12:52:01.208Z,-7.6
2023-02-04T12:53:01.217Z,-7.4
2023-02-04T12:54:01.236Z,-7.2
2023-02-04T12:55:01.339Z,-7.4
2023-02-04T12:56:01.609Z,-7.2
2023-02-04T12:57:01.187Z,-7.2
2023-02-04T12:58:01.304Z,-7.2
2023-02-04T12:59:01.283Z,-7.4
2023-02-04T13:00:01.653Z,-7.4
2023-02-04T13:01:04.134Z,-7.1
2023-02-04T13:02:01.571Z,-6.9
2023-02-04T13:03:01.559Z,-6.7
2023-02-04T13:04:01.215Z,-6.5
2023-02-04T13:05:01.808Z,-6.2
2023-02-04T13:06:01.209Z,-6.2
2023-02-04T13:07:03.361Z,-6.2
2023-02-04T13:08:01.590Z,-6.0
2023-02-04T13:09:01.631Z,-5.6
2023-02-04T13:10:02.254Z,-5.3
2023-02-04T13:11:01.580Z,-4.9
2023-02-04T13:12:01.611Z,-4.7
2023-02-04T13:13:04.156Z,-4.4
2023-02-04T13:14:01.545Z,-4.2
2023-02-04T13:15:01.572Z,-4.0
2023-02-04T13:16:01.592Z,-3.8
2023-02-04T13:17:01.543Z,-3.6
2023-02-04T13:18:01.217Z,-3.5
2023-02-04T13:19:01.206Z,-3.6
2023-02-04T13:20:02.088Z,-3.3
2023-02-04T13:21:01.569Z,-3.1